Time;durP1;ratioP1;P1;durP2;ratioP2;P2;SDS_P1;SDS_P2;PMS_P1;PMS_P2;Temp;Humidity;BMP_temperature;BMP_pressure;BME280_temperature;BME280_humidity;BME280_pressure;Samples;Min_cycle;Max_cycle;Signal;HPM_P1;HPM_P2
2023/07/09 00:02:02;;;;;;;85.40;79.97;;;;;;;;;;1790487;80;27377;-56
2023/07/09 00:04:28;;;;;;;85.00;79.70;;;;;;;;;;1792020;80;25609;-55
2023/07/09 00:06:57;;;;;;;86.42;80.60;;;;;;;;;;1792099;80;25640;-57
2023/07/09 00:09:23;;;;;;;87.47;81.78;;;;;;;;;;1792203;80;25846;-57
2023/07/09 00:11:50;;;;;;;84.92;79.50;;;;;;;;;;1792090;80;31732;-57
2023/07/09 00:14:18;;;;;;;85.28;79.95;;;;;;;;;;1792109;80;27120;-54
2023/07/09 00:16:48;;;;;;;87.97;82.33;;;;;;;;;;1791961;80;27026;-58
2023/07/09 00:19:18;;;;;;;88.80;83.27;;;;;;;;;;1791995;80;25494;-53
2023/07/09 00:21:49;;;;;;;85.57;80.12;;;;;;;;;;1792149;80;25589;-57
2023/07/09 00:24:15;;;;;;;89.45;83.85;;;;;;;;;;1792149;80;25674;-57
2023/07/09 00:26:41;;;;;;;87.53;81.77;;;;;;;;;;1792032;80;27302;-57
2023/07/09 00:29:12;;;;;;;87.97;82.27;;;;;;;;;;1791975;80;25938;-55
2023/07/09 00:31:40;;;;;;;83.62;78.42;;;;;;;;;;1792073;80;25410;-54
2023/07/09 00:34:13;;;;;;;85.42;80.17;;;;;;;;;;1792177;80;32173;-53
2023/07/09 00:36:45;;;;;;;86.42;80.57;;;;;;;;;;1791663;80;25393;-59
2023/07/09 00:39:17;;;;;;;91.55;85.70;;;;;;;;;;1791910;80;27893;-56
2023/07/09 00:41:45;;;;;;;87.35;81.37;;;;;;;;;;1791698;80;25493;-56
2023/07/09 00:44:30;;;;;;;90.20;84.22;;;;;;;;;;1792190;80;25399;-57
2023/07/09 00:47:03;;;;;;;85.87;80.47;;;;;;;;;;1792028;80;25396;-55
2023/07/09 00:49:46;;;;;;;85.80;80.28;;;;;;;;;;1792120;80;25620;-56
2023/07/09 00:52:32;;;;;;;86.22;80.77;;;;;;;;;;1791500;80;27394;-54
2023/07/09 00:54:59;;;;;;;82.72;77.40;;;;;;;;;;1791489;80;27061;-54
2023/07/09 00:57:26;;;;;;;87.12;81.57;;;;;;;;;;1792098;80;25534;-55
2023/07/09 00:59:56;;;;;;;85.25;80.00;;;;;;;;;;1791915;80;27479;-56
2023/07/09 01:02:24;;;;;;;87.08;81.55;;;;;;;;;;1790682;80;25438;-56
2023/07/09 01:04:54;;;;;;;88.40;82.47;;;;;;;;;;1792020;80;27384;-56
2023/07/09 01:07:21;;;;;;;86.72;81.08;;;;;;;;;;1791921;80;25882;-56
2023/07/09 01:09:48;;;;;;;85.03;79.60;;;;;;;;;;1791988;80;25420;-57
2023/07/09 01:12:17;;;;;;;86.25;80.57;;;;;;;;;;1791984;80;34672;-53
2023/07/09 01:14:43;;;;;;;86.45;80.57;;;;;;;;;;1792286;80;25464;-55
2023/07/09 01:17:11;;;;;;;87.08;81.53;;;;;;;;;;1792035;80;27369;-54
2023/07/09 01:19:44;;;;;;;86.82;81.25;;;;;;;;;;1792014;80;25441;-56
2023/07/09 01:22:14;;;;;;;90.55;84.90;;;;;;;;;;1792051;80;25597;-53
2023/07/09 01:25:02;;;;;;;90.00;84.03;;;;;;;;;;1791941;80;25452;-55
2023/07/09 01:27:33;;;;;;;84.92;79.58;;;;;;;;;;1791361;80;25400;-56
2023/07/09 01:30:03;;;;;;;85.62;80.03;;;;;;;;;;1791273;80;27306;-56
2023/07/09 01:32:29;;;;;;;88.00;82.30;;;;;;;;;;1791933;80;25652;-56
2023/07/09 01:35:00;;;;;;;83.30;77.67;;;;;;;;;;1791980;80;25629;-55
2023/07/09 01:37:28;;;;;;;74.05;68.95;;;;;;;;;;1792038;80;25636;-55
2023/07/09 01:39:55;;;;;;;84.85;79.58;;;;;;;;;;1794413;80;25511;-55
2023/07/09 01:42:24;;;;;;;88.90;82.90;;;;;;;;;;1795066;80;27398;-55
2023/07/09 01:44:51;;;;;;;;;;;;;;;;;;1797715;79;25394;-56
2023/07/09 01:47:18;;;;;;;90.35;84.67;;;;;;;;;;1795061;80;25581;-57
2023/07/09 01:49:47;;;;;;;10.45;7.08;;;;;;;;;;1795043;80;25634;-56
2023/07/09 01:52:16;;;;;;;;;;;;;;;;;;1797930;79;25392;-56
2023/07/09 01:54:46;;;;;;;10.45;6.58;;;;;;;;;;1795387;79;27896;-55
2023/07/09 01:57:22;;;;;;;12.98;8.00;;;;;;;;;;1794741;79;27040;-56
2023/07/09 01:59:47;;;;;;;9.53;6.42;;;;;;;;;;1792129;79;25601;-53
2023/07/09 02:02:18;;;;;;;10.60;7.40;;;;;;;;;;1795185;79;27533;-56
2023/07/09 02:04:42;;;;;;;10.90;7.12;;;;;;;;;;1794524;79;25443;-54
2023/07/09 02:07:09;;;;;;;9.73;6.97;;;;;;;;;;1795191;79;29492;-55
2023/07/09 02:09:37;;;;;;;8.08;6.60;;;;;;;;;;1795160;79;25404;-54
2023/07/09 02:12:05;;;;;;;7.67;6.67;;;;;;;;;;1795147;79;25442;-55
2023/07/09 02:14:31;;;;;;;9.43;6.80;;;;;;;;;;1795311;79;25559;-56
2023/07/09 02:16:57;;;;;;;8.63;6.70;;;;;;;;;;1795260;79;25461;-56
2023/07/09 02:19:23;;;;;;;14.47;12.15;;;;;;;;;;1795148;79;27419;-54
2023/07/09 02:21:49;;;;;;;54.05;50.58;;;;;;;;;;1795147;79;25594;-55
2023/07/09 02:24:15;;;;;;;88.75;83.25;;;;;;;;;;1795171;79;29604;-56
2023/07/09 02:26:41;;;;;;;88.52;82.82;;;;;;;;;;1795163;79;35123;-55
2023/07/09 02:29:09;;;;;;;85.75;80.38;;;;;;;;;;1795220;79;32271;-55
2023/07/09 02:31:34;;;;;;;88.82;83.25;;;;;;;;;;1795183;79;27383;-54
2023/07/09 02:34:00;;;;;;;88.92;83.20;;;;;;;;;;1795059;79;33029;-52
2023/07/09 02:36:26;;;;;;;90.05;84.35;;;;;;;;;;1795190;79;29616;-55
2023/07/09 02:38:52;;;;;;;90.35;84.72;;;;;;;;;;1795133;79;34653;-56
2023/07/09 02:41:18;;;;;;;89.65;84.05;;;;;;;;;;1795678;79;32295;-55
2023/07/09 02:43:44;;;;;;;89.25;83.65;;;;;;;;;;1795883;79;29616;-56
2023/07/09 02:46:10;;;;;;;91.75;85.60;;;;;;;;;;1795396;79;33064;-56
2023/07/09 02:48:36;;;;;;;11.48;10.48;;;;;;;;;;1795207;79;25448;-56
2023/07/09 02:51:03;;;;;;;8.83;6.28;;;;;;;;;;1795111;79;25545;-55
2023/07/09 02:53:29;;;;;;;8.15;7.33;;;;;;;;;;1795231;79;25464;-56
2023/07/09 02:55:55;;;;;;;7.78;6.45;;;;;;;;;;1795175;79;27407;-55
2023/07/09 02:58:20;;;;;;;17.30;15.23;;;;;;;;;;1795067;79;25394;-55
2023/07/09 03:00:53;;;;;;;29.92;27.80;;;;;;;;;;1795105;79;25685;-55
2023/07/09 03:03:21;;;;;;;88.67;83.17;;;;;;;;;;1795186;79;25626;-56
2023/07/09 03:05:49;;;;;;;12.73;11.22;;;;;;;;;;1795160;79;25591;-54
2023/07/09 03:08:17;;;;;;;11.28;6.50;;;;;;;;;;1795140;78;27372;-53
2023/07/09 03:10:43;;;;;;;85.75;80.30;;;;;;;;;;1795091;79;25877;-53
2023/07/09 03:13:09;;;;;;;90.30;84.67;;;;;;;;;;1795109;79;29652;-53
2023/07/09 03:15:35;;;;;;;88.27;82.88;;;;;;;;;;1795165;79;25588;-56
2023/07/09 03:18:00;;;;;;;88.35;82.88;;;;;;;;;;1795198;79;25402;-53
2023/07/09 03:20:26;;;;;;;86.97;81.57;;;;;;;;;;1795122;79;27931;-55
2023/07/09 03:22:54;;;;;;;88.37;82.88;;;;;;;;;;1794974;79;25513;-55
2023/07/09 03:25:20;;;;;;;48.68;45.33;;;;;;;;;;1795121;79;25593;-54
2023/07/09 03:27:49;;;;;;;17.23;15.48;;;;;;;;;;1795138;79;25556;-52
2023/07/09 03:30:15;;;;;;;32.28;29.87;;;;;;;;;;1795407;79;25468;-55
2023/07/09 03:32:44;;;;;;;88.03;82.42;;;;;;;;;;1795116;79;27315;-54
2023/07/09 03:35:10;;;;;;;89.97;84.52;;;;;;;;;;1795298;79;25529;-52
2023/07/09 03:37:37;;;;;;;87.82;81.90;;;;;;;;;;1795255;79;25511;-55
2023/07/09 03:40:09;;;;;;;85.53;80.20;;;;;;;;;;1798621;79;25486;-55
2023/07/09 03:42:34;;;;;;;88.67;83.17;;;;;;;;;;1801246;79;25427;-55
2023/07/09 03:45:00;;;;;;;91.32;85.53;;;;;;;;;;1801301;79;27369;-55
2023/07/09 03:47:26;;;;;;;90.28;84.28;;;;;;;;;;1801168;79;27110;-55
2023/07/09 03:49:52;;;;;;;93.00;86.37;;;;;;;;;;1801394;79;25375;-55
2023/07/09 03:52:19;;;;;;;101.38;94.03;;;;;;;;;;1801246;79;25505;-56
2023/07/09 03:54:45;;;;;;;89.92;84.13;;;;;;;;;;1801327;79;25376;-54
2023/07/09 03:57:11;;;;;;;94.77;88.67;;;;;;;;;;1801273;79;27353;-54
2023/07/09 03:59:39;;;;;;;87.88;82.37;;;;;;;;;;1801184;79;25442;-55
2023/07/09 04:02:07;;;;;;;86.40;80.87;;;;;;;;;;1800676;79;25399;-56
2023/07/09 04:04:35;;;;;;;88.65;83.22;;;;;;;;;;1801248;79;25581;-54
2023/07/09 04:07:01;;;;;;;86.32;80.90;;;;;;;;;;1801576;79;25478;-55
2023/07/09 04:09:27;;;;;;;87.08;81.63;;;;;;;;;;1801322;79;27853;-53
2023/07/09 04:11:53;;;;;;;88.35;82.92;;;;;;;;;;1801150;79;25545;-55
2023/07/09 04:14:19;;;;;;;88.70;83.20;;;;;;;;;;1801226;79;25490;-55
2023/07/09 04:16:45;;;;;;;87.80;82.47;;;;;;;;;;1801231;79;25526;-56
2023/07/09 04:19:12;;;;;;;88.22;82.92;;;;;;;;;;1801287;79;25422;-53
2023/07/09 04:21:39;;;;;;;87.37;81.70;;;;;;;;;;1801358;79;26645;-55
2023/07/09 04:24:09;;;;;;;84.75;79.58;;;;;;;;;;1801199;79;25370;-56
2023/07/09 04:26:35;;;;;;;86.65;81.08;;;;;;;;;;1801397;79;25510;-53
2023/07/09 04:29:03;;;;;;;85.83;80.72;;;;;;;;;;1801228;79;25433;-52
2023/07/09 04:31:29;;;;;;;84.17;79.07;;;;;;;;;;1801561;79;25441;-55
2023/07/09 04:33:59;;;;;;;86.30;81.08;;;;;;;;;;1801254;79;26099;-55
2023/07/09 04:36:26;;;;;;;89.28;83.97;;;;;;;;;;1801194;79;25556;-55
2023/07/09 04:38:54;;;;;;;84.83;79.80;;;;;;;;;;1801438;79;25598;-56
2023/07/09 04:41:22;;;;;;;86.75;81.53;;;;;;;;;;1791888;79;27593;-56
2023/07/09 04:43:48;;;;;;;84.85;79.67;;;;;;;;;;1792010;80;25590;-55
2023/07/09 04:46:13;;;;;;;88.37;83.07;;;;;;;;;;1792003;80;27532;-55
2023/07/09 04:48:39;;;;;;;78.90;74.15;;;;;;;;;;1791870;80;33146;-56
2023/07/09 04:51:06;;;;;;;5.00;4.45;;;;;;;;;;1792018;80;25637;-54
2023/07/09 04:53:34;;;;;;;5.12;4.62;;;;;;;;;;1791976;80;25375;-54
2023/07/09 04:56:02;;;;;;;5.78;4.20;;;;;;;;;;1791977;80;25300;-56
2023/07/09 04:58:30;;;;;;;6.87;4.80;;;;;;;;;;1792308;80;28350;-56
2023/07/09 05:01:01;;;;;;;11.43;10.32;;;;;;;;;;1791873;80;25507;-57
2023/07/09 05:03:27;;;;;;;84.25;79.20;;;;;;;;;;1792027;80;25601;-58
2023/07/09 05:05:53;;;;;;;84.90;79.90;;;;;;;;;;1791972;80;25456;-56
2023/07/09 05:08:19;;;;;;;83.67;78.45;;;;;;;;;;1792025;80;25569;-56
2023/07/09 05:10:48;;;;;;;43.63;40.92;;;;;;;;;;1792041;80;27403;-57
2023/07/09 05:13:14;;;;;;;87.37;82.10;;;;;;;;;;1792018;80;25609;-57
2023/07/09 05:15:47;;;;;;;82.10;77.10;;;;;;;;;;1792030;80;25609;-57
2023/07/09 05:18:15;;;;;;;85.40;80.30;;;;;;;;;;1792031;80;25886;-57
2023/07/09 05:20:43;;;;;;;85.60;80.53;;;;;;;;;;1791987;80;25366;-58
2023/07/09 05:23:11;;;;;;;83.70;78.78;;;;;;;;;;1792163;80;27489;-55
2023/07/09 05:25:37;;;;;;;83.12;78.15;;;;;;;;;;1791983;80;25394;-56
2023/07/09 05:28:05;;;;;;;83.37;78.55;;;;;;;;;;1791948;80;25596;-55
2023/07/09 05:30:33;;;;;;;85.90;80.85;;;;;;;;;;1791931;80;25522;-52
2023/07/09 05:32:59;;;;;;;82.75;77.78;;;;;;;;;;1791997;80;25549;-55
2023/07/09 05:35:28;;;;;;;81.15;76.42;;;;;;;;;;1791950;80;27318;-52
2023/07/09 05:37:56;;;;;;;83.40;78.15;;;;;;;;;;1791887;80;25383;-56
2023/07/09 05:40:22;;;;;;;83.85;78.60;;;;;;;;;;1795967;79;25577;-53
2023/07/09 05:42:50;;;;;;;81.25;76.55;;;;;;;;;;1801202;79;34850;-56
2023/07/09 05:45:18;;;;;;;31.40;29.37;;;;;;;;;;1801319;79;25383;-53
2023/07/09 05:47:44;;;;;;;81.20;76.15;;;;;;;;;;1801216;79;29633;-56
2023/07/09 05:50:11;;;;;;;75.92;71.42;;;;;;;;;;1801194;79;33168;-54
2023/07/09 05:52:37;;;;;;;79.12;74.53;;;;;;;;;;1801232;79;25523;-54
2023/07/09 05:55:07;;;;;;;80.87;76.17;;;;;;;;;;1801142;79;34669;-54
2023/07/09 05:57:33;;;;;;;79.22;74.62;;;;;;;;;;1801362;79;25396;-55
2023/07/09 05:59:59;;;;;;;79.85;75.32;;;;;;;;;;1801175;79;29667;-55
2023/07/09 06:02:24;;;;;;;60.55;57.00;;;;;;;;;;1801123;79;25422;-57
2023/07/09 06:04:51;;;;;;;16.27;14.95;;;;;;;;;;1801283;79;25473;-56
2023/07/09 06:07:18;;;;;;;80.55;76.05;;;;;;;;;;1774975;79;25629;-57
2023/07/09 06:09:47;;;;;;;80.57;75.87;;;;;;;;;;1801387;79;25479;-56
2023/07/09 06:12:13;;;;;;;80.25;75.62;;;;;;;;;;1801365;79;29460;-54
2023/07/09 06:14:41;;;;;;;78.25;73.33;;;;;;;;;;1801125;79;25565;-56
2023/07/09 06:17:07;;;;;;;80.47;75.97;;;;;;;;;;1801256;79;25430;-56
2023/07/09 06:19:35;;;;;;;75.42;71.00;;;;;;;;;;1776906;79;25725;-57
2023/07/09 06:22:01;;;;;;;79.80;75.15;;;;;;;;;;1801342;79;32193;-57
2023/07/09 06:24:27;;;;;;;78.12;73.52;;;;;;;;;;1801176;79;27409;-56
2023/07/09 06:26:53;;;;;;;79.17;74.55;;;;;;;;;;1801103;79;32663;-56
2023/07/09 06:29:19;;;;;;;76.55;72.17;;;;;;;;;;1801227;79;30111;-56
2023/07/09 06:31:46;;;;;;;75.85;71.50;;;;;;;;;;1801210;79;25550;-57
2023/07/09 06:34:12;;;;;;;77.53;73.05;;;;;;;;;;1801224;79;25401;-56
2023/07/09 06:36:40;;;;;;;77.30;72.45;;;;;;;;;;1801186;79;27435;-57
2023/07/09 06:39:08;;;;;;;75.22;71.00;;;;;;;;;;1801326;79;25592;-56
2023/07/09 06:41:39;;;;;;;80.15;75.67;;;;;;;;;;1796087;79;25404;-56
2023/07/09 06:44:08;;;;;;;76.77;72.42;;;;;;;;;;1795251;79;25467;-58
2023/07/09 06:46:36;;;;;;;77.42;73.00;;;;;;;;;;1795196;79;25594;-56
2023/07/09 06:49:08;;;;;;;77.45;73.00;;;;;;;;;;1795145;79;27478;-57
2023/07/09 06:51:34;;;;;;;76.55;72.22;;;;;;;;;;1793962;79;25580;-57
2023/07/09 06:54:01;;;;;;;6.15;5.45;;;;;;;;;;1795355;79;25533;-57
2023/07/09 06:56:27;;;;;;;78.02;73.62;;;;;;;;;;1795150;79;25623;-56
2023/07/09 06:58:53;;;;;;;77.90;73.55;;;;;;;;;;1795162;79;25535;-57
2023/07/09 07:01:20;;;;;;;6.30;5.67;;;;;;;;;;1795127;79;27417;-57
2023/07/09 07:03:47;;;;;;;78.70;74.30;;;;;;;;;;1795080;79;26974;-56
2023/07/09 07:06:13;;;;;;;74.60;70.37;;;;;;;;;;1795404;79;29556;-57
2023/07/09 07:08:39;;;;;;;77.17;72.92;;;;;;;;;;1795491;79;35239;-55
2023/07/09 07:11:06;;;;;;;74.30;70.17;;;;;;;;;;1795527;79;32762;-54
2023/07/09 07:13:36;;;;;;;74.77;70.57;;;;;;;;;;1795494;79;27330;-56
2023/07/09 07:16:06;;;;;;;72.50;68.60;;;;;;;;;;1795093;79;25588;-56
2023/07/09 07:18:35;;;;;;;76.10;71.87;;;;;;;;;;1795179;79;25594;-57
2023/07/09 07:21:04;;;;;;;74.77;69.97;;;;;;;;;;1795068;79;25518;-57
2023/07/09 07:23:32;;;;;;;77.45;73.20;;;;;;;;;;1795156;79;25466;-56
2023/07/09 07:26:00;;;;;;;74.20;70.03;;;;;;;;;;1795156;79;27388;-57
2023/07/09 07:28:26;;;;;;;72.58;68.52;;;;;;;;;;1795099;79;25450;-58
2023/07/09 07:31:10;;;;;;;76.65;72.35;;;;;;;;;;1795144;79;29562;-58
2023/07/09 07:33:41;;;;;;;73.15;69.07;;;;;;;;;;1795113;79;25469;-57
2023/07/09 07:36:11;;;;;;;11.05;3.75;;;;;;;;;;1795147;79;25589;-57
2023/07/09 07:38:36;;;;;;;;;;;;;;;;;;1797801;79;27304;-56
2023/07/09 07:41:04;;;;;;;3.47;3.02;;;;;;;;;;1793492;79;25835;-55
2023/07/09 07:43:30;;;;;;;7.22;2.80;;;;;;;;;;1792094;80;25449;-56
2023/07/09 07:45:56;;;;;;;3.90;1.90;;;;;;;;;;1791932;80;25463;-55
2023/07/09 07:48:25;;;;;;;2.47;2.02;;;;;;;;;;1792073;80;25473;-56
2023/07/09 07:50:51;;;;;;;7.53;2.42;;;;;;;;;;1792161;80;27437;-56
2023/07/09 07:53:18;;;;;;;6.67;6.05;;;;;;;;;;1791962;80;25388;-56
2023/07/09 07:55:46;;;;;;;7.08;6.37;;;;;;;;;;1792037;80;25620;-56
2023/07/09 07:58:14;;;;;;;41.75;39.60;;;;;;;;;;1791961;80;27529;-56
2023/07/09 08:00:42;;;;;;;68.28;64.55;;;;;;;;;;1791987;80;25645;-54
2023/07/09 08:03:11;;;;;;;73.45;69.67;;;;;;;;;;1792080;80;27267;-57
2023/07/09 08:05:39;;;;;;;;;;;;;;;;;;1794625;80;25607;-57
2023/07/09 08:08:05;;;;;;;69.40;65.80;;;;;;;;;;1792074;80;25433;-57
2023/07/09 08:10:31;;;;;;;57.93;54.90;;;;;;;;;;1791978;80;25516;-58
2023/07/09 08:12:57;;;;;;;70.05;66.42;;;;;;;;;;1792039;80;25463;-63
2023/07/09 08:15:28;;;;;;;66.47;63.05;;;;;;;;;;1792006;80;27390;-58
2023/07/09 08:17:54;;;;;;;70.80;67.03;;;;;;;;;;1791945;80;25496;-57
2023/07/09 08:20:20;;;;;;;68.37;64.92;;;;;;;;;;1792034;80;27765;-58
2023/07/09 08:22:46;;;;;;;66.90;63.38;;;;;;;;;;1791941;80;25570;-58
2023/07/09 08:25:12;;;;;;;66.55;63.13;;;;;;;;;;1792110;80;25433;-57
2023/07/09 08:27:38;;;;;;;69.55;65.75;;;;;;;;;;1792004;80;27295;-56
2023/07/09 08:30:07;;;;;;;72.92;68.90;;;;;;;;;;1791976;80;32732;-57
2023/07/09 08:32:33;;;;;;;67.80;64.32;;;;;;;;;;1792188;80;25536;-57
2023/07/09 08:34:59;;;;;;;69.55;65.87;;;;;;;;;;1791978;80;25574;-57
2023/07/09 08:37:25;;;;;;;68.65;65.05;;;;;;;;;;1792057;80;25566;-56
2023/07/09 08:39:51;;;;;;;69.40;65.78;;;;;;;;;;1792050;80;26945;-57
2023/07/09 08:42:35;;;;;;;66.87;63.45;;;;;;;;;;1794451;79;25547;-58
2023/07/09 08:45:17;;;;;;;66.17;62.85;;;;;;;;;;1794886;79;25458;-59
2023/07/09 08:47:50;;;;;;;66.72;63.23;;;;;;;;;;1793966;79;26058;-61
2023/07/09 08:50:19;;;;;;;66.90;63.50;;;;;;;;;;1793849;79;25787;-59
2023/07/09 08:52:51;;;;;;;68.22;64.70;;;;;;;;;;1793821;79;27338;-59
2023/07/09 08:55:22;;;;;;;33.55;31.75;;;;;;;;;;1795188;79;25535;-58
2023/07/09 08:57:59;;;;;;;3.90;3.10;;;;;;;;;;1795168;79;25553;-59
2023/07/09 09:00:49;;;;;;;7.75;6.40;;;;;;;;;;1795128;79;25462;-59
2023/07/09 09:03:37;;;;;;;10.30;9.50;;;;;;;;;;1795228;79;25624;-58
2023/07/09 09:06:07;;;;;;;67.15;63.60;;;;;;;;;;1795411;79;27304;-59
2023/07/09 09:08:42;;;;;;;66.47;62.88;;;;;;;;;;1794115;79;25521;-59
2023/07/09 09:11:11;;;;;;;8.15;7.70;;;;;;;;;;1795259;79;25613;-59
2023/07/09 09:13:38;;;;;;;62.93;59.73;;;;;;;;;;1795026;79;25611;-59
2023/07/09 09:16:09;;;;;;;66.95;63.63;;;;;;;;;;1795171;79;25447;-60
2023/07/09 09:18:43;;;;;;;13.90;13.20;;;;;;;;;;1792351;79;27445;-62
2023/07/09 09:21:18;;;;;;;65.28;62.00;;;;;;;;;;1795064;79;25566;-61
2023/07/09 09:23:52;;;;;;;64.97;61.68;;;;;;;;;;1795276;79;25415;-61
2023/07/09 09:26:22;;;;;;;66.65;63.35;;;;;;;;;;1795149;79;25671;-62
2023/07/09 09:28:48;;;;;;;64.62;61.50;;;;;;;;;;1793712;79;25596;-61
2023/07/09 09:31:16;;;;;;;59.83;56.80;;;;;;;;;;1795258;80;27338;-63
2023/07/09 09:33:45;;;;;;;63.70;60.60;;;;;;;;;;1795015;80;25549;-63
2023/07/09 09:36:20;;;;;;;64.30;60.73;;;;;;;;;;1795149;79;25375;-62
2023/07/09 09:38:50;;;;;;;62.33;59.23;;;;;;;;;;1794320;80;25877;-63
2023/07/09 09:41:19;;;;;;;65.87;62.33;;;;;;;;;;1795053;80;25602;-62
2023/07/09 09:43:47;;;;;;;61.55;58.55;;;;;;;;;;1795176;80;27393;-62
2023/07/09 09:46:20;;;;;;;64.50;61.35;;;;;;;;;;1795131;80;25483;-62
2023/07/09 09:48:49;;;;;;;64.37;61.20;;;;;;;;;;1794767;80;25582;-61
2023/07/09 09:51:18;;;;;;;65.10;61.88;;;;;;;;;;1795080;80;25619;-62
2023/07/09 09:53:48;;;;;;;64.00;60.58;;;;;;;;;;1795182;79;25586;-60
2023/07/09 09:56:36;;;;;;;63.38;60.28;;;;;;;;;;1794853;80;27447;-61
2023/07/09 09:59:05;;;;;;;62.55;59.58;;;;;;;;;;1795237;80;25542;-61
2023/07/09 10:01:38;;;;;;;69.72;66.05;;;;;;;;;;1795088;80;25311;-63
2023/07/09 10:04:06;;;;;;;72.05;67.87;;;;;;;;;;1795139;80;26196;-63
2023/07/09 10:06:39;;;;;;;70.57;66.72;;;;;;;;;;1795137;80;25480;-64
2023/07/09 10:09:26;;;;;;;62.70;59.60;;;;;;;;;;1795184;80;27335;-63
2023/07/09 10:12:04;;;;;;;61.70;58.80;;;;;;;;;;1795036;79;26961;-63
2023/07/09 10:14:34;;;;;;;62.17;59.18;;;;;;;;;;1793737;79;25538;-63
2023/07/09 10:17:07;;;;;;;64.60;61.50;;;;;;;;;;1776298;79;25525;-64
2023/07/09 10:19:37;;;;;;;1.62;1.17;;;;;;;;;;1794742;79;25525;-58
2023/07/09 10:22:25;;;;;;;58.98;56.13;;;;;;;;;;1766083;79;27490;-63
2023/07/09 10:25:00;;;;;;;61.60;58.70;;;;;;;;;;1783318;79;25640;-62
2023/07/09 10:27:30;;;;;;;60.20;57.40;;;;;;;;;;1795373;79;25540;-61
2023/07/09 10:30:16;;;;;;;59.73;56.73;;;;;;;;;;1794965;79;25504;-59
2023/07/09 10:33:03;;;;;;;60.90;57.67;;;;;;;;;;1795320;79;25469;-59
2023/07/09 10:35:49;;;;;;;61.30;58.38;;;;;;;;;;1795315;79;27441;-59
2023/07/09 10:38:33;;;;;;;60.12;57.13;;;;;;;;;;1795264;79;25428;-59
2023/07/09 10:41:03;;;;;;;58.80;55.90;;;;;;;;;;1794705;79;25601;-59
2023/07/09 10:43:50;;;;;;;59.98;57.03;;;;;;;;;;1791870;80;25559;-59
2023/07/09 10:46:23;;;;;;;63.92;60.65;;;;;;;;;;1792356;80;25633;-59
2023/07/09 10:48:55;;;;;;;63.58;60.10;;;;;;;;;;1792215;80;27463;-58
2023/07/09 10:51:24;;;;;;;75.03;69.40;;;;;;;;;;1792088;80;25373;-58
2023/07/09 10:54:09;;;;;;;60.80;57.33;;;;;;;;;;1792269;80;25391;-57
2023/07/09 10:56:37;;;;;;;63.73;60.40;;;;;;;;;;1791034;80;25938;-59
2023/07/09 10:59:26;;;;;;;63.28;59.67;;;;;;;;;;1792298;80;25481;-58
2023/07/09 11:02:13;;;;;;;;;;;;;;;;;;1794768;80;27393;-59
2023/07/09 11:04:58;;;;;;;63.87;60.65;;;;;;;;;;1792345;80;25400;-58
2023/07/09 11:07:31;;;;;;;60.08;56.95;;;;;;;;;;1792129;80;25372;-62
2023/07/09 11:09:59;;;;;;;66.02;62.48;;;;;;;;;;1792178;80;25575;-57
2023/07/09 11:12:31;;;;;;;58.40;55.05;;;;;;;;;;1792314;80;25633;-57
2023/07/09 11:15:04;;;;;;;59.73;56.63;;;;;;;;;;1792196;80;28295;-55
2023/07/09 11:17:34;;;;;;;61.13;58.10;;;;;;;;;;1792065;80;25470;-58
2023/07/09 11:20:05;;;;;;;61.48;58.52;;;;;;;;;;1792249;80;25545;-54
2023/07/09 11:22:40;;;;;;;60.90;57.90;;;;;;;;;;1791459;80;25922;-63
2023/07/09 11:25:12;;;;;;;62.50;59.50;;;;;;;;;;1792212;80;25352;-62
2023/07/09 11:27:56;;;;;;;57.53;54.77;;;;;;;;;;1792108;80;27344;-62
2023/07/09 11:30:25;;;;;;;66.10;62.17;;;;;;;;;;1790470;80;27033;-61
2023/07/09 11:32:58;;;;;;;82.95;77.35;;;;;;;;;;1792187;80;25412;-62
2023/07/09 11:35:28;;;;;;;58.38;55.45;;;;;;;;;;1791748;80;25889;-62
2023/07/09 11:37:58;;;;;;;56.75;54.00;;;;;;;;;;1792168;80;25438;-59
2023/07/09 11:40:24;;;;;;;54.90;51.92;;;;;;;;;;1792135;80;27400;-58
2023/07/09 11:42:59;;;;;;;56.08;53.23;;;;;;;;;;1791969;80;25368;-60
2023/07/09 11:45:32;;;;;;;58.02;54.98;;;;;;;;;;1792128;80;25412;-57
2023/07/09 11:48:14;;;;;;;55.40;52.60;;;;;;;;;;1792127;80;25580;-57
2023/07/09 11:50:47;;;;;;;59.25;56.33;;;;;;;;;;1788944;80;25463;-58
2023/07/09 11:53:33;;;;;;;56.60;53.90;;;;;;;;;;1791274;80;29368;-58
2023/07/09 11:55:59;;;;;;;54.38;51.77;;;;;;;;;;1791432;80;25474;-58
2023/07/09 11:58:25;;;;;;;54.48;51.77;;;;;;;;;;1792167;80;25428;-58
2023/07/09 12:00:57;;;;;;;57.03;54.27;;;;;;;;;;1792068;80;34665;-56
2023/07/09 12:03:34;;;;;;;60.70;57.80;;;;;;;;;;1792102;80;25610;-58
2023/07/09 12:06:15;;;;;;;59.88;56.98;;;;;;;;;;1792125;80;27535;-59
2023/07/09 12:08:43;;;;;;;59.13;56.23;;;;;;;;;;1789346;80;25422;-56
2023/07/09 12:11:31;;;;;;;57.10;54.40;;;;;;;;;;1792099;80;25442;-59
2023/07/09 12:14:07;;;;;;;56.10;53.40;;;;;;;;;;1792188;80;25431;-57
2023/07/09 12:16:39;;;;;;;58.78;55.95;;;;;;;;;;1791695;80;25630;-57
2023/07/09 12:19:07;;;;;;;56.90;54.20;;;;;;;;;;1792187;80;27969;-58
2023/07/09 12:21:37;;;;;;;61.05;58.08;;;;;;;;;;1792036;80;34781;-59
2023/07/09 12:24:17;;;;;;;59.70;56.73;;;;;;;;;;1791991;80;25510;-63
2023/07/09 12:26:43;;;;;;;59.75;56.90;;;;;;;;;;1791154;80;25468;-62
2023/07/09 12:29:13;;;;;;;63.38;59.90;;;;;;;;;;1758938;80;25589;-62
2023/07/09 12:31:41;;;;;;;101.22;93.20;;;;;;;;;;1791777;80;27254;-63
2023/07/09 12:34:13;;;;;;;57.93;54.85;;;;;;;;;;1792141;80;30016;-62
2023/07/09 12:36:43;;;;;;;58.17;55.33;;;;;;;;;;1792028;80;25412;-57
2023/07/09 12:39:12;;;;;;;61.53;58.35;;;;;;;;;;1792082;80;25576;-56
2023/07/09 12:41:41;;;;;;;59.83;56.98;;;;;;;;;;1792119;79;25208;-65
2023/07/09 12:44:20;;;;;;;62.53;59.53;;;;;;;;;;1801378;79;27432;-58
2023/07/09 12:46:49;;;;;;;62.00;58.92;;;;;;;;;;1801255;79;25481;-54
2023/07/09 12:49:24;;;;;;;58.92;55.92;;;;;;;;;;1801298;79;25521;-57
2023/07/09 12:51:53;;;;;;;59.33;56.48;;;;;;;;;;1796253;79;25454;-56
2023/07/09 12:54:22;;;;;;;60.95;57.88;;;;;;;;;;1800901;79;25678;-56
2023/07/09 12:56:52;;;;;;;60.78;57.78;;;;;;;;;;1801135;79;29586;-57
2023/07/09 12:59:22;;;;;;;59.08;56.20;;;;;;;;;;1801289;79;25444;-55
2023/07/09 13:01:50;;;;;;;60.08;57.17;;;;;;;;;;1801222;79;25585;-53
2023/07/09 13:04:17;;;;;;;59.93;56.77;;;;;;;;;;1801246;79;27487;-57
2023/07/09 13:06:47;;;;;;;53.45;50.85;;;;;;;;;;1801421;79;25435;-57
2023/07/09 13:09:20;;;;;;;60.12;56.88;;;;;;;;;;1801439;79;27580;-56
2023/07/09 13:11:49;;;;;;;58.00;55.10;;;;;;;;;;1801187;79;25429;-55
2023/07/09 13:14:18;;;;;;;57.67;54.85;;;;;;;;;;1801335;79;25388;-53
2023/07/09 13:16:44;;;;;;;56.65;53.85;;;;;;;;;;1793072;79;25533;-60
2023/07/09 13:19:10;;;;;;;59.42;55.48;;;;;;;;;;1801266;79;32663;-54
2023/07/09 13:21:38;;;;;;;60.40;57.20;;;;;;;;;;1801203;79;27469;-56
2023/07/09 13:24:14;;;;;;;59.20;56.35;;;;;;;;;;1776445;79;32929;-60
2023/07/09 13:26:41;;;;;;;60.25;57.23;;;;;;;;;;1796249;79;25617;-55
2023/07/09 13:29:17;;;;;;;58.50;55.45;;;;;;;;;;1801326;79;25932;-54
2023/07/09 13:31:46;;;;;;;61.98;58.68;;;;;;;;;;1801355;79;25582;-62
2023/07/09 13:34:21;;;;;;;76.47;71.35;;;;;;;;;;1801329;79;27401;-61
2023/07/09 13:36:50;;;;;;;69.35;64.90;;;;;;;;;;1801209;79;27083;-59
2023/07/09 13:39:18;;;;;;;59.33;56.23;;;;;;;;;;1801265;79;25647;-60
2023/07/09 13:41:46;;;;;;;62.03;58.60;;;;;;;;;;1801457;79;25628;-59
2023/07/09 13:44:16;;;;;;;62.73;59.38;;;;;;;;;;1795335;79;25160;-59
2023/07/09 13:46:42;;;;;;;62.73;59.58;;;;;;;;;;1795189;79;26972;-60
2023/07/09 13:49:14;;;;;;;64.57;61.13;;;;;;;;;;1795218;79;31454;-61
2023/07/09 13:51:42;;;;;;;197.50;177.53;;;;;;;;;;1795235;79;25434;-59
2023/07/09 13:54:17;;;;;;;76.12;71.35;;;;;;;;;;1768466;79;25445;-64
2023/07/09 13:56:46;;;;;;;63.23;60.05;;;;;;;;;;1794088;79;25212;-52
2023/07/09 13:59:16;;;;;;;;;;;;;;;;;;1797999;79;27240;-55
2023/07/09 14:01:45;;;;;;;59.23;56.42;;;;;;;;;;1788685;79;25569;-55
2023/07/09 14:04:16;;;;;;;63.38;60.10;;;;;;;;;;1795289;79;25417;-55
2023/07/09 14:06:48;;;;;;;60.35;57.25;;;;;;;;;;1795251;79;25612;-52
2023/07/09 14:09:16;;;;;;;62.78;59.42;;;;;;;;;;1795290;79;25641;-51
2023/07/09 14:11:53;;;;;;;54.18;51.33;;;;;;;;;;1795326;79;27450;-50
2023/07/09 14:14:23;;;;;;;63.80;60.70;;;;;;;;;;1795116;79;25820;-55
2023/07/09 14:16:52;;;;;;;25.25;23.98;;;;;;;;;;1795241;79;25380;-57
2023/07/09 14:19:25;;;;;;;2.92;2.72;;;;;;;;;;1795181;79;26080;-51
2023/07/09 14:21:55;;;;;;;3.02;2.70;;;;;;;;;;1795176;79;25521;-52
2023/07/09 14:24:27;;;;;;;6.55;6.05;;;;;;;;;;1795211;79;27352;-50
2023/07/09 14:26:57;;;;;;;26.37;24.98;;;;;;;;;;1795046;79;25529;-50
2023/07/09 14:29:26;;;;;;;64.03;60.92;;;;;;;;;;1795140;79;25499;-52
2023/07/09 14:31:52;;;;;;;66.20;63.00;;;;;;;;;;1795154;79;26300;-51
2023/07/09 14:34:31;;;;;;;65.42;62.27;;;;;;;;;;1795169;79;25688;-55
2023/07/09 14:37:01;;;;;;;62.62;59.60;;;;;;;;;;1795345;79;27438;-52